sensor_id;sensor_type;location;lat;lon;timestamp;temperature;humidity
27741;DHT22;15134;48.768;9.184;2024-03-02T00:01:11;8.20;99.90
27741;DHT22;15134;48.768;9.184;2024-03-02T00:03:38;8.20;99.90
27741;DHT22;15134;48.768;9.184;2024-03-02T00:06:04;8.20;99.90
27741;DHT22;15134;48.768;9.184;2024-03-02T00:08:30;8.20;99.90
27741;DHT22;15134;48.768;9.184;2024-03-02T00:11:00;8.10;99.90
27741;DHT22;15134;48.768;9.184;2024-03-02T00:13:26;8.10;99.90
27741;DHT22;15134;48.768;9.184;2024-03-02T00:15:55;8.10;99.90
27741;DHT22;15134;48.768;9.184;2024-03-02T00:18:32;8.00;99.90
27741;DHT22;15134;48.768;9.184;2024-03-02T00:20:59;8.00;99.90
27741;DHT22;15134;48.768;9.184;2024-03-02T00:23:29;8.00;99.90
27741;DHT22;15134;48.768;9.184;2024-03-02T00:25:55;8.00;99.90
27741;DHT22;15134;48.768;9.184;2024-03-02T00:33:21;8.00;99.90
27741;DHT22;15134;48.768;9.184;2024-03-02T00:35:48;8.00;99.90
27741;DHT22;15134;48.768;9.184;2024-03-02T00:38:14;8.00;99.90
27741;DHT22;15134;48.768;9.184;2024-03-02T00:40:45;8.10;99.90
27741;DHT22;15134;48.768;9.184;2024-03-02T00:46:03;8.00;99.90
27741;DHT22;15134;48.768;9.184;2024-03-02T00:48:29;8.00;99.90
27741;DHT22;15134;48.768;9.184;2024-03-02T00:50:57;8.00;99.90
27741;DHT22;15134;48.768;9.184;2024-03-02T00:53:24;8.00;99.90
27741;DHT22;15134;48.768;9.184;2024-03-02T00:55:52;8.00;99.90
27741;DHT22;15134;48.768;9.184;2024-03-02T00:58:18;8.10;99.90
27741;DHT22;15134;48.768;9.184;2024-03-02T01:00:43;8.00;99.90
27741;DHT22;15134;48.768;9.184;2024-03-02T01:03:10;8.10;99.90
27741;DHT22;15134;48.768;9.184;2024-03-02T01:05:36;8.10;99.90
27741;DHT22;15134;48.768;9.184;2024-03-02T01:08:02;8.10;99.90
27741;DHT22;15134;48.768;9.184;2024-03-02T01:10:28;8.10;99.90
27741;DHT22;15134;48.768;9.184;2024-03-02T01:12:54;8.10;99.90
27741;DHT22;15134;48.768;9.184;2024-03-02T01:15:20;8.10;99.90
27741;DHT22;15134;48.768;9.184;2024-03-02T01:17:47;8.20;99.90
27741;DHT22;15134;48.768;9.184;2024-03-02T01:20:15;8.20;99.90
27741;DHT22;15134;48.768;9.184;2024-03-02T01:22:40;8.20;99.90
27741;DHT22;15134;48.768;9.184;2024-03-02T01:25:06;8.10;99.90
27741;DHT22;15134;48.768;9.184;2024-03-02T01:27:34;8.00;99.90
27741;DHT22;15134;48.768;9.184;2024-03-02T01:29:59;8.00;99.90
27741;DHT22;15134;48.768;9.184;2024-03-02T01:32:25;8.00;99.90
27741;DHT22;15134;48.768;9.184;2024-03-02T01:34:51;7.90;99.90
27741;DHT22;15134;48.768;9.184;2024-03-02T01:37:17;7.90;99.90
27741;DHT22;15134;48.768;9.184;2024-03-02T01:39:43;7.80;99.90
27741;DHT22;15134;48.768;9.184;2024-03-02T01:42:08;7.70;99.90
27741;DHT22;15134;48.768;9.184;2024-03-02T01:44:36;7.70;99.90
27741;DHT22;15134;48.768;9.184;2024-03-02T01:47:02;7.60;99.90
27741;DHT22;15134;48.768;9.184;2024-03-02T01:49:27;7.50;99.90
27741;DHT22;15134;48.768;9.184;2024-03-02T01:51:53;7.50;99.90
27741;DHT22;15134;48.768;9.184;2024-03-02T01:54:20;7.40;99.90
27741;DHT22;15134;48.768;9.184;2024-03-02T01:56:46;7.40;99.90
27741;DHT22;15134;48.768;9.184;2024-03-02T01:59:12;7.40;99.90
27741;DHT22;15134;48.768;9.184;2024-03-02T02:01:39;7.30;99.90
27741;DHT22;15134;48.768;9.184;2024-03-02T02:04:05;7.40;99.90
27741;DHT22;15134;48.768;9.184;2024-03-02T02:06:32;7.40;99.90
27741;DHT22;15134;48.768;9.184;2024-03-02T02:08:58;7.30;99.90
27741;DHT22;15134;48.768;9.184;2024-03-02T02:11:24;7.30;99.90
27741;DHT22;15134;48.768;9.184;2024-03-02T02:13:50;7.30;99.90
27741;DHT22;15134;48.768;9.184;2024-03-02T02:16:16;7.20;99.90
27741;DHT22;15134;48.768;9.184;2024-03-02T02:18:42;7.30;99.90
27741;DHT22;15134;48.768;9.184;2024-03-02T02:21:08;7.20;99.90
27741;DHT22;15134;48.768;9.184;2024-03-02T02:23:34;7.20;99.90
27741;DHT22;15134;48.768;9.184;2024-03-02T02:25:59;7.20;99.90
27741;DHT22;15134;48.768;9.184;2024-03-02T02:28:25;7.20;99.90
27741;DHT22;15134;48.768;9.184;2024-03-02T02:30:51;7.20;99.90
27741;DHT22;15134;48.768;9.184;2024-03-02T02:33:16;7.20;99.90
27741;DHT22;15134;48.768;9.184;2024-03-02T02:35:42;7.20;99.90
27741;DHT22;15134;48.768;9.184;2024-03-02T02:38:08;7.00;99.90
27741;DHT22;15134;48.768;9.184;2024-03-02T02:40:34;6.90;99.90
27741;DHT22;15134;48.768;9.184;2024-03-02T02:42:59;7.00;99.90
27741;DHT22;15134;48.768;9.184;2024-03-02T02:45:25;6.90;99.90
27741;DHT22;15134;48.768;9.184;2024-03-02T02:47:51;6.90;99.90
27741;DHT22;15134;48.768;9.184;2024-03-02T02:50:16;7.00;99.90
27741;DHT22;15134;48.768;9.184;2024-03-02T02:52:43;6.90;99.90
27741;DHT22;15134;48.768;9.184;2024-03-02T02:55:11;6.80;99.90
27741;DHT22;15134;48.768;9.184;2024-03-02T02:57:38;6.80;99.90
27741;DHT22;15134;48.768;9.184;2024-03-02T03:00:12;6.80;99.90
27741;DHT22;15134;48.768;9.184;2024-03-02T03:02:47;6.70;99.90
27741;DHT22;15134;48.768;9.184;2024-03-02T03:05:14;6.60;99.90
27741;DHT22;15134;48.768;9.184;2024-03-02T03:07:42;6.60;99.90
27741;DHT22;15134;48.768;9.184;2024-03-02T03:10:09;6.50;99.90
27741;DHT22;15134;48.768;9.184;2024-03-02T03:12:36;6.50;99.90
27741;DHT22;15134;48.768;9.184;2024-03-02T03:15:03;6.50;99.90
27741;DHT22;15134;48.768;9.184;2024-03-02T03:17:30;6.60;99.90
27741;DHT22;15134;48.768;9.184;2024-03-02T03:19:55;6.50;99.90
27741;DHT22;15134;48.768;9.184;2024-03-02T03:22:21;6.50;99.90
27741;DHT22;15134;48.768;9.184;2024-03-02T03:24:47;6.50;99.90
27741;DHT22;15134;48.768;9.184;2024-03-02T03:27:13;6.50;99.90
27741;DHT22;15134;48.768;9.184;2024-03-02T03:29:38;6.60;99.90
27741;DHT22;15134;48.768;9.184;2024-03-02T03:32:04;6.60;99.90
27741;DHT22;15134;48.768;9.184;2024-03-02T03:34:35;6.60;99.90
27741;DHT22;15134;48.768;9.184;2024-03-02T03:37:01;6.60;99.90
27741;DHT22;15134;48.768;9.184;2024-03-02T03:39:27;6.60;99.90
27741;DHT22;15134;48.768;9.184;2024-03-02T03:41:53;6.60;99.90
27741;DHT22;15134;48.768;9.184;2024-03-02T03:44:20;6.70;99.90
27741;DHT22;15134;48.768;9.184;2024-03-02T03:46:45;6.70;99.90
27741;DHT22;15134;48.768;9.184;2024-03-02T03:49:11;6.70;99.90
27741;DHT22;15134;48.768;9.184;2024-03-02T03:51:37;6.60;99.90
27741;DHT22;15134;48.768;9.184;2024-03-02T03:54:03;6.60;99.90
27741;DHT22;15134;48.768;9.184;2024-03-02T03:56:28;6.50;99.90
27741;DHT22;15134;48.768;9.184;2024-03-02T03:58:54;6.50;99.90
27741;DHT22;15134;48.768;9.184;2024-03-02T04:01:20;6.50;99.90
27741;DHT22;15134;48.768;9.184;2024-03-02T04:03:48;6.50;99.90
27741;DHT22;15134;48.768;9.184;2024-03-02T04:06:14;6.40;99.90
27741;DHT22;15134;48.768;9.184;2024-03-02T04:08:41;6.30;99.90
27741;DHT22;15134;48.768;9.184;2024-03-02T04:11:07;6.40;99.90
27741;DHT22;15134;48.768;9.184;2024-03-02T04:13:33;6.40;99.90
27741;DHT22;15134;48.768;9.184;2024-03-02T04:15:59;6.50;99.90
27741;DHT22;15134;48.768;9.184;2024-03-02T04:18:25;6.40;99.90
27741;DHT22;15134;48.768;9.184;2024-03-02T04:20:50;6.40;99.90
27741;DHT22;15134;48.768;9.184;2024-03-02T04:23:16;6.30;99.90
27741;DHT22;15134;48.768;9.184;2024-03-02T04:25:42;6.20;99.90
27741;DHT22;15134;48.768;9.184;2024-03-02T04:28:08;6.20;99.90
27741;DHT22;15134;48.768;9.184;2024-03-02T04:30:34;6.20;99.90
27741;DHT22;15134;48.768;9.184;2024-03-02T04:32:59;6.20;99.90
27741;DHT22;15134;48.768;9.184;2024-03-02T04:35:26;6.20;99.90
27741;DHT22;15134;48.768;9.184;2024-03-02T04:37:52;6.30;99.90
27741;DHT22;15134;48.768;9.184;2024-03-02T04:40:19;6.30;99.90
27741;DHT22;15134;48.768;9.184;2024-03-02T04:42:45;6.30;99.90
27741;DHT22;15134;48.768;9.184;2024-03-02T04:45:10;6.30;99.90
27741;DHT22;15134;48.768;9.184;2024-03-02T04:47:36;6.30;99.90
27741;DHT22;15134;48.768;9.184;2024-03-02T04:50:02;6.40;99.90
27741;DHT22;15134;48.768;9.184;2024-03-02T04:52:28;6.40;99.90
27741;DHT22;15134;48.768;9.184;2024-03-02T04:54:53;6.40;99.90
27741;DHT22;15134;48.768;9.184;2024-03-02T04:57:37;6.20;99.90
27741;DHT22;15134;48.768;9.184;2024-03-02T05:00:03;6.00;99.90
27741;DHT22;15134;48.768;9.184;2024-03-02T05:02:32;6.00;99.90
27741;DHT22;15134;48.768;9.184;2024-03-02T05:04:59;6.00;99.90
27741;DHT22;15134;48.768;9.184;2024-03-02T05:07:26;6.10;99.90
27741;DHT22;15134;48.768;9.184;2024-03-02T05:09:52;6.10;99.90
27741;DHT22;15134;48.768;9.184;2024-03-02T05:12:17;6.10;99.90
27741;DHT22;15134;48.768;9.184;2024-03-02T05:15:02;6.10;99.90
27741;DHT22;15134;48.768;9.184;2024-03-02T05:17:28;6.10;99.90
27741;DHT22;15134;48.768;9.184;2024-03-02T05:19:53;6.10;99.90
27741;DHT22;15134;48.768;9.184;2024-03-02T05:22:20;6.10;99.90
27741;DHT22;15134;48.768;9.184;2024-03-02T05:24:46;6.10;99.90
27741;DHT22;15134;48.768;9.184;2024-03-02T05:27:12;6.20;99.90
27741;DHT22;15134;48.768;9.184;2024-03-02T05:29:37;6.20;99.90
27741;DHT22;15134;48.768;9.184;2024-03-02T05:32:03;6.20;99.90
27741;DHT22;15134;48.768;9.184;2024-03-02T05:34:29;6.20;99.90
27741;DHT22;15134;48.768;9.184;2024-03-02T05:36:56;6.20;99.90
27741;DHT22;15134;48.768;9.184;2024-03-02T05:39:23;6.20;99.90
27741;DHT22;15134;48.768;9.184;2024-03-02T05:41:49;6.20;99.90
27741;DHT22;15134;48.768;9.184;2024-03-02T05:44:14;6.20;99.90
27741;DHT22;15134;48.768;9.184;2024-03-02T05:46:42;6.20;99.90
27741;DHT22;15134;48.768;9.184;2024-03-02T05:49:08;6.20;99.90
27741;DHT22;15134;48.768;9.184;2024-03-02T05:51:35;6.20;99.90
27741;DHT22;15134;48.768;9.184;2024-03-02T05:54:01;6.20;99.90
27741;DHT22;15134;48.768;9.184;2024-03-02T05:56:27;6.10;99.90
27741;DHT22;15134;48.768;9.184;2024-03-02T05:58:53;6.20;99.90
27741;DHT22;15134;48.768;9.184;2024-03-02T06:01:37;6.10;99.90
27741;DHT22;15134;48.768;9.184;2024-03-02T06:04:05;6.10;99.90
27741;DHT22;15134;48.768;9.184;2024-03-02T06:06:31;6.10;99.90
27741;DHT22;15134;48.768;9.184;2024-03-02T06:09:02;6.10;99.90
27741;DHT22;15134;48.768;9.184;2024-03-02T06:11:40;6.10;99.90
27741;DHT22;15134;48.768;9.184;2024-03-02T06:14:09;6.20;99.90
27741;DHT22;15134;48.768;9.184;2024-03-02T06:16:35;6.20;99.90
27741;DHT22;15134;48.768;9.184;2024-03-02T06:19:01;6.20;99.90
27741;DHT22;15134;48.768;9.184;2024-03-02T06:21:27;6.10;99.90
27741;DHT22;15134;48.768;9.184;2024-03-02T06:23:53;6.10;99.90
27741;DHT22;15134;48.768;9.184;2024-03-02T06:26:19;6.00;99.90
27741;DHT22;15134;48.768;9.184;2024-03-02T06:28:45;6.10;99.90
27741;DHT22;15134;48.768;9.184;2024-03-02T06:31:12;6.10;99.90
27741;DHT22;15134;48.768;9.184;2024-03-02T06:33:37;6.20;99.90
27741;DHT22;15134;48.768;9.184;2024-03-02T06:36:04;6.20;99.90
27741;DHT22;15134;48.768;9.184;2024-03-02T06:38:30;6.30;99.90
27741;DHT22;15134;48.768;9.184;2024-03-02T06:40:57;6.40;99.90
27741;DHT22;15134;48.768;9.184;2024-03-02T06:43:23;6.50;99.90
27741;DHT22;15134;48.768;9.184;2024-03-02T06:45:52;6.50;99.90
27741;DHT22;15134;48.768;9.184;2024-03-02T06:48:18;6.50;99.90
27741;DHT22;15134;48.768;9.184;2024-03-02T06:50:47;6.60;99.90
27741;DHT22;15134;48.768;9.184;2024-03-02T06:53:16;6.60;99.90
27741;DHT22;15134;48.768;9.184;2024-03-02T06:55:45;6.70;99.90
27741;DHT22;15134;48.768;9.184;2024-03-02T06:58:14;6.80;99.90
27741;DHT22;15134;48.768;9.184;2024-03-02T07:00:43;6.70;99.90
27741;DHT22;15134;48.768;9.184;2024-03-02T07:03:09;6.80;99.90
27741;DHT22;15134;48.768;9.184;2024-03-02T07:05:35;6.90;99.90
27741;DHT22;15134;48.768;9.184;2024-03-02T07:08:01;7.00;99.90
27741;DHT22;15134;48.768;9.184;2024-03-02T07:10:29;6.90;99.90
27741;DHT22;15134;48.768;9.184;2024-03-02T07:12:57;6.80;99.90
27741;DHT22;15134;48.768;9.184;2024-03-02T07:15:23;6.90;99.90
27741;DHT22;15134;48.768;9.184;2024-03-02T07:18:07;7.10;99.90
27741;DHT22;15134;48.768;9.184;2024-03-02T07:20:32;7.20;99.90
27741;DHT22;15134;48.768;9.184;2024-03-02T07:22:58;7.20;99.90
27741;DHT22;15134;48.768;9.184;2024-03-02T07:25:24;7.20;99.90
27741;DHT22;15134;48.768;9.184;2024-03-02T07:27:50;7.40;99.90
27741;DHT22;15134;48.768;9.184;2024-03-02T07:30:16;7.50;99.90
27741;DHT22;15134;48.768;9.184;2024-03-02T07:32:42;7.60;99.90
27741;DHT22;15134;48.768;9.184;2024-03-02T07:35:12;7.70;99.90
27741;DHT22;15134;48.768;9.184;2024-03-02T07:37:39;7.80;99.90
27741;DHT22;15134;48.768;9.184;2024-03-02T07:40:05;8.00;99.90
27741;DHT22;15134;48.768;9.184;2024-03-02T07:42:34;8.10;99.90
27741;DHT22;15134;48.768;9.184;2024-03-02T07:45:00;8.10;99.90
27741;DHT22;15134;48.768;9.184;2024-03-02T07:47:26;8.10;99.90
27741;DHT22;15134;48.768;9.184;2024-03-02T07:49:52;8.20;99.90
27741;DHT22;15134;48.768;9.184;2024-03-02T07:52:17;8.30;99.90
27741;DHT22;15134;48.768;9.184;2024-03-02T07:54:43;8.30;99.90
27741;DHT22;15134;48.768;9.184;2024-03-02T07:57:09;8.40;99.90
27741;DHT22;15134;48.768;9.184;2024-03-02T07:59:36;8.40;99.90
27741;DHT22;15134;48.768;9.184;2024-03-02T08:02:03;8.50;99.90
27741;DHT22;15134;48.768;9.184;2024-03-02T08:04:28;8.60;99.90
27741;DHT22;15134;48.768;9.184;2024-03-02T08:06:54;8.50;99.90
27741;DHT22;15134;48.768;9.184;2024-03-02T08:09:20;8.60;99.90
27741;DHT22;15134;48.768;9.184;2024-03-02T08:11:46;8.60;99.90
27741;DHT22;15134;48.768;9.184;2024-03-02T08:14:12;8.60;99.90
27741;DHT22;15134;48.768;9.184;2024-03-02T08:16:37;8.70;99.90
27741;DHT22;15134;48.768;9.184;2024-03-02T08:19:03;8.80;99.90
27741;DHT22;15134;48.768;9.184;2024-03-02T08:21:29;8.90;99.90
27741;DHT22;15134;48.768;9.184;2024-03-02T08:23:57;9.00;99.90
27741;DHT22;15134;48.768;9.184;2024-03-02T08:26:23;9.10;99.90
27741;DHT22;15134;48.768;9.184;2024-03-02T08:28:49;9.10;99.90
27741;DHT22;15134;48.768;9.184;2024-03-02T08:31:15;9.30;99.90
27741;DHT22;15134;48.768;9.184;2024-03-02T08:33:40;9.50;99.90
27741;DHT22;15134;48.768;9.184;2024-03-02T08:36:06;9.60;99.90
27741;DHT22;15134;48.768;9.184;2024-03-02T08:38:33;9.80;99.90
27741;DHT22;15134;48.768;9.184;2024-03-02T08:40:59;10.20;99.90
27741;DHT22;15134;48.768;9.184;2024-03-02T08:43:24;10.80;99.90
27741;DHT22;15134;48.768;9.184;2024-03-02T08:45:50;11.60;99.90
27741;DHT22;15134;48.768;9.184;2024-03-02T08:48:16;12.60;99.90
27741;DHT22;15134;48.768;9.184;2024-03-02T08:50:43;13.50;99.90
27741;DHT22;15134;48.768;9.184;2024-03-02T08:53:09;14.20;99.90
27741;DHT22;15134;48.768;9.184;2024-03-02T08:55:35;15.20;99.90
27741;DHT22;15134;48.768;9.184;2024-03-02T08:58:00;16.20;99.90
27741;DHT22;15134;48.768;9.184;2024-03-02T09:00:26;16.90;99.90
27741;DHT22;15134;48.768;9.184;2024-03-02T09:02:52;17.00;99.90
27741;DHT22;15134;48.768;9.184;2024-03-02T09:05:18;17.00;99.90
27741;DHT22;15134;48.768;9.184;2024-03-02T09:07:43;16.90;99.90
27741;DHT22;15134;48.768;9.184;2024-03-02T09:10:09;17.00;99.90
27741;DHT22;15134;48.768;9.184;2024-03-02T09:12:35;17.00;99.90
27741;DHT22;15134;48.768;9.184;2024-03-02T09:15:01;17.00;99.90
27741;DHT22;15134;48.768;9.184;2024-03-02T09:17:29;17.00;99.90
27741;DHT22;15134;48.768;9.184;2024-03-02T09:19:55;17.00;99.90
27741;DHT22;15134;48.768;9.184;2024-03-02T09:22:21;17.00;99.90
27741;DHT22;15134;48.768;9.184;2024-03-02T09:24:47;16.70;99.90
27741;DHT22;15134;48.768;9.184;2024-03-02T09:27:13;16.60;99.90
27741;DHT22;15134;48.768;9.184;2024-03-02T09:29:38;16.60;99.90
27741;DHT22;15134;48.768;9.184;2024-03-02T09:32:05;16.60;99.90
27741;DHT22;15134;48.768;9.184;2024-03-02T09:34:31;16.70;99.90
27741;DHT22;15134;48.768;9.184;2024-03-02T09:36:58;16.90;99.90
27741;DHT22;15134;48.768;9.184;2024-03-02T09:39:24;16.90;99.90
27741;DHT22;15134;48.768;9.184;2024-03-02T09:41:50;16.90;99.90
27741;DHT22;15134;48.768;9.184;2024-03-02T09:44:17;16.70;99.90
27741;DHT22;15134;48.768;9.184;2024-03-02T09:46:42;16.50;99.90
27741;DHT22;15134;48.768;9.184;2024-03-02T09:49:10;16.30;99.90
27741;DHT22;15134;48.768;9.184;2024-03-02T09:51:37;16.00;99.90
27741;DHT22;15134;48.768;9.184;2024-03-02T09:54:03;15.90;99.90
27741;DHT22;15134;48.768;9.184;2024-03-02T09:56:29;15.90;99.90
27741;DHT22;15134;48.768;9.184;2024-03-02T09:58:55;15.90;99.90
27741;DHT22;15134;48.768;9.184;2024-03-02T10:01:21;16.00;99.90
27741;DHT22;15134;48.768;9.184;2024-03-02T10:03:47;16.20;99.90
27741;DHT22;15134;48.768;9.184;2024-03-02T10:06:22;16.30;99.90
27741;DHT22;15134;48.768;9.184;2024-03-02T10:08:48;16.40;99.90
27741;DHT22;15134;48.768;9.184;2024-03-02T10:11:32;16.40;99.90
27741;DHT22;15134;48.768;9.184;2024-03-02T10:14:10;16.40;99.90
27741;DHT22;15134;48.768;9.184;2024-03-02T10:16:37;16.30;99.90
27741;DHT22;15134;48.768;9.184;2024-03-02T10:19:20;16.30;99.90
27741;DHT22;15134;48.768;9.184;2024-03-02T10:21:51;16.30;99.90
27741;DHT22;15134;48.768;9.184;2024-03-02T10:24:21;16.00;99.90
27741;DHT22;15134;48.768;9.184;2024-03-02T10:26:48;15.90;99.90
27741;DHT22;15134;48.768;9.184;2024-03-02T10:29:14;15.90;99.90
27741;DHT22;15134;48.768;9.184;2024-03-02T10:31:41;15.80;99.90
27741;DHT22;15134;48.768;9.184;2024-03-02T10:34:08;15.90;99.90
27741;DHT22;15134;48.768;9.184;2024-03-02T10:36:34;15.90;99.90
27741;DHT22;15134;48.768;9.184;2024-03-02T10:39:05;16.00;99.90
27741;DHT22;15134;48.768;9.184;2024-03-02T10:41:35;16.10;99.90
27741;DHT22;15134;48.768;9.184;2024-03-02T10:44:03;16.00;99.90
27741;DHT22;15134;48.768;9.184;2024-03-02T10:46:33;16.00;99.90
27741;DHT22;15134;48.768;9.184;2024-03-02T10:49:00;16.00;99.90
27741;DHT22;15134;48.768;9.184;2024-03-02T10:51:28;16.10;99.90
27741;DHT22;15134;48.768;9.184;2024-03-02T10:53:58;16.20;99.90
27741;DHT22;15134;48.768;9.184;2024-03-02T10:56:32;16.00;99.90
27741;DHT22;15134;48.768;9.184;2024-03-02T10:59:03;16.00;99.90
27741;DHT22;15134;48.768;9.184;2024-03-02T11:01:33;15.90;99.90
27741;DHT22;15134;48.768;9.184;2024-03-02T11:04:02;15.80;99.90
27741;DHT22;15134;48.768;9.184;2024-03-02T11:06:29;15.70;99.90
27741;DHT22;15134;48.768;9.184;2024-03-02T11:09:00;15.70;99.90
27741;DHT22;15134;48.768;9.184;2024-03-02T11:11:36;15.70;99.90
27741;DHT22;15134;48.768;9.184;2024-03-02T11:14:04;15.90;99.90
27741;DHT22;15134;48.768;9.184;2024-03-02T11:16:35;15.90;99.90
27741;DHT22;15134;48.768;9.184;2024-03-02T11:19:13;16.00;99.90
27741;DHT22;15134;48.768;9.184;2024-03-02T11:21:40;16.10;99.90
27741;DHT22;15134;48.768;9.184;2024-03-02T11:26:48;16.10;99.90
27741;DHT22;15134;48.768;9.184;2024-03-02T11:32:02;16.30;99.90
27741;DHT22;15134;48.768;9.184;2024-03-02T11:34:30;16.40;99.90
27741;DHT22;15134;48.768;9.184;2024-03-02T11:37:03;16.40;99.90
27741;DHT22;15134;48.768;9.184;2024-03-02T11:39:29;16.40;99.90
27741;DHT22;15134;48.768;9.184;2024-03-02T11:41:58;16.40;99.90
27741;DHT22;15134;48.768;9.184;2024-03-02T11:44:26;16.50;99.90
27741;DHT22;15134;48.768;9.184;2024-03-02T11:47:01;16.40;99.90
27741;DHT22;15134;48.768;9.184;2024-03-02T11:49:38;16.30;99.90
27741;DHT22;15134;48.768;9.184;2024-03-02T11:52:09;16.20;99.90
27741;DHT22;15134;48.768;9.184;2024-03-02T11:54:41;16.20;99.90
27741;DHT22;15134;48.768;9.184;2024-03-02T11:57:13;16.30;99.90
27741;DHT22;15134;48.768;9.184;2024-03-02T11:59:40;16.30;99.90
27741;DHT22;15134;48.768;9.184;2024-03-02T12:02:06;16.20;99.90
27741;DHT22;15134;48.768;9.184;2024-03-02T12:04:38;16.20;99.90
27741;DHT22;15134;48.768;9.184;2024-03-02T12:07:04;16.20;99.90
27741;DHT22;15134;48.768;9.184;2024-03-02T12:09:30;16.10;99.90
27741;DHT22;15134;48.768;9.184;2024-03-02T12:12:09;16.00;99.90
27741;DHT22;15134;48.768;9.184;2024-03-02T12:14:37;16.00;99.90
27741;DHT22;15134;48.768;9.184;2024-03-02T12:17:05;16.00;99.90
27741;DHT22;15134;48.768;9.184;2024-03-02T12:19:32;16.00;99.90
27741;DHT22;15134;48.768;9.184;2024-03-02T12:21:59;16.10;99.90
27741;DHT22;15134;48.768;9.184;2024-03-02T12:24:29;16.10;99.90
27741;DHT22;15134;48.768;9.184;2024-03-02T12:26:55;16.10;99.90
27741;DHT22;15134;48.768;9.184;2024-03-02T12:29:22;16.20;99.90
27741;DHT22;15134;48.768;9.184;2024-03-02T12:31:52;16.20;99.90
27741;DHT22;15134;48.768;9.184;2024-03-02T12:34:18;16.20;99.90
27741;DHT22;15134;48.768;9.184;2024-03-02T12:36:46;16.20;99.90
27741;DHT22;15134;48.768;9.184;2024-03-02T12:39:15;16.20;99.90
27741;DHT22;15134;48.768;9.184;2024-03-02T12:41:41;16.10;99.90
27741;DHT22;15134;48.768;9.184;2024-03-02T12:44:08;16.10;99.90
27741;DHT22;15134;48.768;9.184;2024-03-02T12:46:34;16.10;99.90
27741;DHT22;15134;48.768;9.184;2024-03-02T12:49:13;16.10;99.90
27741;DHT22;15134;48.768;9.184;2024-03-02T12:51:40;16.10;99.90
27741;DHT22;15134;48.768;9.184;2024-03-02T12:54:10;16.00;99.90
27741;DHT22;15134;48.768;9.184;2024-03-02T12:56:37;16.10;99.90
27741;DHT22;15134;48.768;9.184;2024-03-02T12:59:04;16.10;99.90
27741;DHT22;15134;48.768;9.184;2024-03-02T13:01:30;16.10;99.90
27741;DHT22;15134;48.768;9.184;2024-03-02T13:03:58;16.00;99.90
27741;DHT22;15134;48.768;9.184;2024-03-02T13:06:25;16.00;99.90
27741;DHT22;15134;48.768;9.184;2024-03-02T13:08:53;15.90;99.90
27741;DHT22;15134;48.768;9.184;2024-03-02T13:11:21;16.00;99.90
27741;DHT22;15134;48.768;9.184;2024-03-02T13:13:47;16.00;99.90
27741;DHT22;15134;48.768;9.184;2024-03-02T13:16:13;16.00;99.90
27741;DHT22;15134;48.768;9.184;2024-03-02T13:18:41;16.00;99.90
27741;DHT22;15134;48.768;9.184;2024-03-02T13:21:10;16.00;99.90
27741;DHT22;15134;48.768;9.184;2024-03-02T13:23:35;15.90;99.90
27741;DHT22;15134;48.768;9.184;2024-03-02T13:26:01;15.80;99.90
27741;DHT22;15134;48.768;9.184;2024-03-02T13:28:28;15.80;99.90
27741;DHT22;15134;48.768;9.184;2024-03-02T13:30:53;15.70;99.90
27741;DHT22;15134;48.768;9.184;2024-03-02T13:33:19;15.70;99.90
27741;DHT22;15134;48.768;9.184;2024-03-02T13:35:51;15.60;99.90
27741;DHT22;15134;48.768;9.184;2024-03-02T13:38:20;15.50;99.90
27741;DHT22;15134;48.768;9.184;2024-03-02T13:40:48;15.50;99.90
27741;DHT22;15134;48.768;9.184;2024-03-02T13:43:18;15.40;99.90
27741;DHT22;15134;48.768;9.184;2024-03-02T13:45:46;15.40;99.90
27741;DHT22;15134;48.768;9.184;2024-03-02T13:48:13;15.40;99.90
27741;DHT22;15134;48.768;9.184;2024-03-02T13:50:40;15.50;99.90
27741;DHT22;15134;48.768;9.184;2024-03-02T13:53:06;15.40;99.90
27741;DHT22;15134;48.768;9.184;2024-03-02T13:55:32;15.40;99.90
27741;DHT22;15134;48.768;9.184;2024-03-02T13:57:58;15.40;99.90
27741;DHT22;15134;48.768;9.184;2024-03-02T14:00:24;15.40;99.90
27741;DHT22;15134;48.768;9.184;2024-03-02T14:02:51;15.40;99.90
27741;DHT22;15134;48.768;9.184;2024-03-02T14:05:16;15.30;99.90
27741;DHT22;15134;48.768;9.184;2024-03-02T14:07:43;15.30;99.90
27741;DHT22;15134;48.768;9.184;2024-03-02T14:10:09;15.30;99.90
27741;DHT22;15134;48.768;9.184;2024-03-02T14:12:36;15.30;99.90
27741;DHT22;15134;48.768;9.184;2024-03-02T14:15:02;15.20;99.90
27741;DHT22;15134;48.768;9.184;2024-03-02T14:17:28;15.20;99.90
27741;DHT22;15134;48.768;9.184;2024-03-02T14:19:54;15.10;99.90
27741;DHT22;15134;48.768;9.184;2024-03-02T14:22:20;15.10;99.90
27741;DHT22;15134;48.768;9.184;2024-03-02T14:24:46;15.10;99.90
27741;DHT22;15134;48.768;9.184;2024-03-02T14:27:13;15.10;99.90
27741;DHT22;15134;48.768;9.184;2024-03-02T14:29:40;15.00;99.90
27741;DHT22;15134;48.768;9.184;2024-03-02T14:32:07;15.00;99.90
27741;DHT22;15134;48.768;9.184;2024-03-02T14:34:32;15.00;99.90
27741;DHT22;15134;48.768;9.184;2024-03-02T14:36:59;15.00;99.90
27741;DHT22;15134;48.768;9.184;2024-03-02T14:39:25;15.00;99.90
27741;DHT22;15134;48.768;9.184;2024-03-02T14:41:51;15.00;99.90
27741;DHT22;15134;48.768;9.184;2024-03-02T14:44:17;15.00;99.90
27741;DHT22;15134;48.768;9.184;2024-03-02T14:46:46;15.00;99.90
27741;DHT22;15134;48.768;9.184;2024-03-02T14:49:12;15.00;99.90
27741;DHT22;15134;48.768;9.184;2024-03-02T14:51:38;15.00;99.90
27741;DHT22;15134;48.768;9.184;2024-03-02T14:54:04;15.00;99.90
27741;DHT22;15134;48.768;9.184;2024-03-02T14:56:30;15.00;99.90
27741;DHT22;15134;48.768;9.184;2024-03-02T14:58:55;15.00;99.90
27741;DHT22;15134;48.768;9.184;2024-03-02T15:01:21;15.00;99.90
27741;DHT22;15134;48.768;9.184;2024-03-02T15:03:49;15.00;99.90
27741;DHT22;15134;48.768;9.184;2024-03-02T15:06:15;15.00;99.90
27741;DHT22;15134;48.768;9.184;2024-03-02T15:08:41;15.00;99.90
27741;DHT22;15134;48.768;9.184;2024-03-02T15:11:08;15.00;99.90
27741;DHT22;15134;48.768;9.184;2024-03-02T15:13:34;14.90;99.90
27741;DHT22;15134;48.768;9.184;2024-03-02T15:16:00;14.90;99.90
27741;DHT22;15134;48.768;9.184;2024-03-02T15:18:26;14.90;99.90
27741;DHT22;15134;48.768;9.184;2024-03-02T15:20:53;14.90;99.90
27741;DHT22;15134;48.768;9.184;2024-03-02T15:23:18;14.80;99.90
27741;DHT22;15134;48.768;9.184;2024-03-02T15:25:44;14.80;99.90
27741;DHT22;15134;48.768;9.184;2024-03-02T15:28:10;14.70;99.90
27741;DHT22;15134;48.768;9.184;2024-03-02T15:30:36;14.70;99.90
27741;DHT22;15134;48.768;9.184;2024-03-02T15:33:02;14.60;99.90
27741;DHT22;15134;48.768;9.184;2024-03-02T15:35:28;14.50;99.90
27741;DHT22;15134;48.768;9.184;2024-03-02T15:37:54;14.50;99.90
27741;DHT22;15134;48.768;9.184;2024-03-02T15:40:20;14.40;99.90
27741;DHT22;15134;48.768;9.184;2024-03-02T15:42:47;14.40;99.90
27741;DHT22;15134;48.768;9.184;2024-03-02T15:45:13;14.40;99.90
27741;DHT22;15134;48.768;9.184;2024-03-02T15:47:39;14.30;99.90
27741;DHT22;15134;48.768;9.184;2024-03-02T15:50:07;14.20;99.90
27741;DHT22;15134;48.768;9.184;2024-03-02T15:52:33;14.20;99.90